Time;durP1;ratioP1;P1;durP2;ratioP2;P2;SDS_P1;SDS_P2;PMS_P1;PMS_P2;Temp;Humidity;BMP_temperature;BMP_pressure;BME280_temperature;BME280_humidity;BME280_pressure;Samples;Min_cycle;Max_cycle;Signal;HPM_P1;HPM_P2
2021/07/13 00:00:51;;;;;;;7.80;6.15;;;20.50;85.00;;;;;;5090214;28;20115;-74
2021/07/13 00:03:17;;;;;;;10.60;6.72;;;20.50;85.10;;;;;;5092876;28;20028;-74
2021/07/13 00:05:43;;;;;;;7.82;7.00;;;20.50;85.20;;;;;;5087019;28;20500;-76
2021/07/13 00:08:09;;;;;;;8.23;7.32;;;20.50;85.40;;;;;;5074421;28;20033;-74
2021/07/13 00:10:38;;;;;;;9.95;6.85;;;20.50;85.50;;;;;;5083757;28;20540;-75
2021/07/13 00:13:03;;;;;;;9.85;8.30;;;20.50;85.70;;;;;;5070596;28;20024;-74
2021/07/13 00:15:38;;;;;;;8.90;7.95;;;20.50;85.60;;;;;;5071552;28;20038;-74
2021/07/13 00:18:04;;;;;;;9.60;8.70;;;20.50;85.70;;;;;;5072805;28;20388;-74
2021/07/13 00:20:31;;;;;;;9.43;8.00;;;20.50;85.70;;;;;;5079411;28;20082;-74
2021/07/13 00:22:56;;;;;;;11.02;8.88;;;20.50;85.80;;;;;;5084928;28;20110;-74
2021/07/13 00:25:24;;;;;;;10.68;8.13;;;20.60;85.80;;;;;;5090420;28;20489;-74
2021/07/13 00:27:50;;;;;;;8.67;7.87;;;20.50;85.90;;;;;;5086285;28;20024;-74
2021/07/13 00:30:18;;;;;;;9.13;8.23;;;20.50;85.90;;;;;;5071486;28;20036;-74
2021/07/13 00:32:44;;;;;;;11.95;8.48;;;20.50;85.70;;;;;;5067862;28;20028;-74
2021/07/13 00:35:10;;;;;;;10.50;8.60;;;20.50;85.60;;;;;;5094811;28;20028;-74
2021/07/13 00:37:36;;;;;;;11.02;8.52;;;20.60;85.70;;;;;;5080794;28;20035;-75
2021/07/13 00:40:04;;;;;;;8.02;7.22;;;20.50;85.70;;;;;;5076869;28;20044;-74
2021/07/13 00:42:29;;;;;;;9.02;7.50;;;20.50;85.80;;;;;;5086562;28;20458;-74
2021/07/13 00:44:55;;;;;;;9.90;7.70;;;20.50;85.80;;;;;;5084248;28;20116;-74
2021/07/13 00:47:22;;;;;;;8.68;7.53;;;20.50;85.90;;;;;;5079537;28;20055;-74
2021/07/13 00:49:48;;;;;;;11.82;8.38;;;20.50;86.00;;;;;;5093633;28;20059;-74
2021/07/13 00:52:15;;;;;;;10.82;9.43;;;20.50;85.90;;;;;;5093049;28;20031;-74
2021/07/13 00:54:41;;;;;;;10.25;8.40;;;20.50;86.10;;;;;;5082793;28;20028;-74
2021/07/13 00:57:08;;;;;;;9.07;7.95;;;20.50;86.20;;;;;;5081049;28;20102;-75
2021/07/13 00:59:38;;;;;;;10.63;9.57;;;20.50;86.30;;;;;;5096649;28;20044;-74
2021/07/13 01:02:05;;;;;;;10.15;9.15;;;20.50;86.40;;;;;;5081536;28;20385;-74
2021/07/13 01:04:31;;;;;;;11.63;10.38;;;20.40;86.30;;;;;;5088883;28;20024;-74
2021/07/13 01:07:20;;;;;;;9.45;8.63;;;20.40;86.40;;;;;;5082892;28;20033;-74
2021/07/13 01:09:46;;;;;;;10.90;9.80;;;20.40;86.60;;;;;;5086059;28;20475;-74
2021/07/13 01:12:31;;;;;;;9.98;8.55;;;20.40;86.50;;;;;;5081174;28;20062;-75
2021/07/13 01:15:01;;;;;;;9.13;8.05;;;20.40;86.60;;;;;;5094470;28;20050;-74
2021/07/13 01:18:00;;;;;;;9.50;8.57;;;20.30;86.60;;;;;;5076676;28;20027;-74
2021/07/13 01:20:36;;;;;;;10.48;9.45;;;20.40;86.60;;;;;;5070260;28;20110;-74
2021/07/13 01:23:36;;;;;;;8.55;7.47;;;20.30;86.70;;;;;;5075682;28;20056;-75
2021/07/13 01:26:17;;;;;;;9.15;8.35;;;20.40;86.90;;;;;;5080671;28;20537;-75
2021/07/13 01:28:50;;;;;;;15.25;10.50;;;20.30;86.90;;;;;;5081467;28;20523;-74
2021/07/13 01:31:18;;;;;;;9.15;8.27;;;20.30;86.70;;;;;;5086643;28;20016;-74
2021/07/13 01:33:53;;;;;;;9.50;8.40;;;20.40;86.80;;;;;;5085745;28;20021;-74
2021/07/13 01:36:27;;;;;;;10.55;9.32;;;20.40;86.80;;;;;;5075634;28;20029;-74
2021/07/13 01:38:54;;;;;;;9.82;8.63;;;20.40;86.90;;;;;;5076280;28;20548;-74
2021/07/13 01:41:24;;;;;;;12.57;10.45;;;20.40;87.00;;;;;;5094720;28;20039;-74
2021/07/13 01:43:51;;;;;;;11.73;8.57;;;20.40;87.00;;;;;;5086304;28;20020;-74
2021/07/13 01:46:19;;;;;;;9.95;9.10;;;20.40;87.00;;;;;;5093723;28;20030;-74
2021/07/13 01:48:47;;;;;;;13.02;10.27;;;20.40;87.10;;;;;;5077469;28;20485;-74
2021/07/13 01:51:14;;;;;;;12.00;10.32;;;20.40;87.10;;;;;;5083157;28;20374;-75
2021/07/13 01:53:40;;;;;;;9.98;8.95;;;20.40;87.10;;;;;;5088478;28;20040;-74
2021/07/13 01:56:08;;;;;;;11.63;10.23;;;20.40;87.30;;;;;;5074128;28;20024;-74
2021/07/13 01:58:36;;;;;;;10.73;9.00;;;20.40;87.30;;;;;;5079480;28;20115;-74
2021/07/13 02:01:19;;;;;;;12.02;9.18;;;20.40;87.30;;;;;;5075016;28;20116;-74
2021/07/13 02:03:45;;;;;;;12.23;9.77;;;20.50;88.20;;;;;;5083430;28;20032;-74
2021/07/13 02:06:14;;;;;;;10.45;8.25;;;20.40;87.60;;;;;;5079100;28;20608;-74
2021/07/13 02:08:40;;;;;;;9.23;8.43;;;20.40;87.70;;;;;;5073561;28;20064;-74
2021/07/13 02:11:07;;;;;;;11.85;9.73;;;20.40;87.70;;;;;;5074929;28;20037;-74
2021/07/13 02:13:33;;;;;;;10.13;9.13;;;20.40;88.50;;;;;;5069818;28;20032;-74
2021/07/13 02:15:59;;;;;;;10.80;8.52;;;20.40;87.90;;;;;;5067436;28;20028;-74
2021/07/13 02:18:26;;;;;;;10.65;9.23;;;20.40;87.90;;;;;;5073688;28;20021;-74
2021/07/13 02:20:52;;;;;;;10.40;8.93;;;20.40;87.80;;;;;;5079607;28;20028;-74
2021/07/13 02:23:18;;;;;;;12.18;8.65;;;20.40;87.80;;;;;;5078759;28;20450;-74
2021/07/13 02:25:48;;;;;;;8.02;7.22;;;20.40;87.80;;;;;;5078247;28;20020;-74
2021/07/13 02:28:29;;;;;;;10.45;9.45;;;20.40;87.70;;;;;;5074571;28;20028;-74
2021/07/13 02:31:00;;;;;;;9.85;8.63;;;20.40;87.90;;;;;;5068782;28;20020;-75
2021/07/13 02:33:31;;;;;;;9.10;8.20;;;20.40;87.80;;;;;;5086369;28;20481;-74
2021/07/13 02:36:02;;;;;;;10.05;8.93;;;20.40;88.00;;;;;;5082374;28;20424;-74
2021/07/13 02:38:28;;;;;;;9.15;7.75;;;20.40;88.20;;;;;;5079255;28;20456;-74
2021/07/13 02:40:55;;;;;;;11.45;8.73;;;20.40;88.10;;;;;;5094797;28;20093;-74
2021/07/13 02:43:22;;;;;;;13.88;8.07;;;20.30;88.00;;;;;;5090263;28;20031;-74
2021/07/13 02:45:53;;;;;;;8.55;7.85;;;20.40;88.10;;;;;;5083234;28;20032;-74
2021/07/13 02:48:19;;;;;;;7.82;7.13;;;20.40;88.10;;;;;;5094676;28;20017;-74
2021/07/13 02:50:46;;;;;;;8.30;7.47;;;20.30;88.10;;;;;;5086044;28;20040;-75
2021/07/13 02:53:13;;;;;;;11.38;7.95;;;20.30;88.10;;;;;;5056715;28;20033;-74
2021/07/13 02:55:40;;;;;;;10.20;9.27;;;20.30;88.20;;;;;;5080147;28;20028;-75
2021/07/13 02:58:06;;;;;;;10.50;9.50;;;20.30;88.20;;;;;;5080924;28;20059;-74
2021/07/13 03:00:34;;;;;;;8.73;7.80;;;20.30;88.30;;;;;;5088601;28;20113;-74
2021/07/13 03:03:00;;;;;;;8.82;7.85;;;20.30;88.50;;;;;;5094315;28;20097;-75
2021/07/13 03:05:26;;;;;;;10.43;7.68;;;20.30;88.50;;;;;;5081770;28;20036;-75
2021/07/13 03:07:53;;;;;;;9.02;8.02;;;20.30;88.50;;;;;;5072760;28;20044;-74
2021/07/13 03:10:26;;;;;;;9.10;8.18;;;20.30;88.50;;;;;;5079142;28;20024;-74
2021/07/13 03:12:53;;;;;;;13.35;8.55;;;20.30;88.60;;;;;;5093961;28;20032;-75
2021/07/13 03:15:21;;;;;;;8.80;8.00;;;20.20;88.60;;;;;;5084930;28;20020;-74
2021/07/13 03:17:46;;;;;;;9.27;8.33;;;20.20;88.70;;;;;;5089036;28;20036;-74
2021/07/13 03:20:12;;;;;;;8.85;8.05;;;20.20;88.60;;;;;;5091122;28;20028;-74
2021/07/13 03:22:41;;;;;;;9.50;8.57;;;20.20;88.60;;;;;;5074098;28;20111;-74
2021/07/13 03:25:09;;;;;;;8.80;7.95;;;20.20;88.60;;;;;;5074628;28;20020;-74
2021/07/13 03:27:35;;;;;;;8.97;7.07;;;20.20;88.60;;;;;;5092568;28;20052;-74
2021/07/13 03:30:03;;;;;;;9.50;8.25;;;20.20;88.70;;;;;;5093769;28;20028;-75
2021/07/13 03:32:33;;;;;;;9.90;8.77;;;20.20;88.80;;;;;;5077420;28;20100;-74
2021/07/13 03:35:00;;;;;;;9.63;8.73;;;20.20;88.70;;;;;;5093727;28;20500;-74
2021/07/13 03:37:26;;;;;;;10.13;8.90;;;20.20;88.80;;;;;;5072291;28;20090;-74
2021/07/13 03:39:52;;;;;;;7.65;6.95;;;20.20;88.80;;;;;;5072917;28;20024;-74
2021/07/13 03:42:18;;;;;;;9.27;8.32;;;20.10;88.80;;;;;;5072128;28;20025;-74
2021/07/13 03:44:44;;;;;;;8.35;7.43;;;20.10;88.70;;;;;;5076861;28;20031;-74
2021/07/13 03:47:12;;;;;;;9.38;8.48;;;20.10;88.80;;;;;;5083924;28;20025;-74
2021/07/13 03:49:38;;;;;;;8.95;7.88;;;20.10;88.90;;;;;;5058426;28;20024;-75
2021/07/13 03:52:04;;;;;;;9.18;8.10;;;20.10;89.00;;;;;;5086615;28;20020;-75
2021/07/13 03:54:30;;;;;;;8.30;7.50;;;20.10;89.00;;;;;;5075473;28;20497;-74
2021/07/13 03:56:55;;;;;;;9.30;8.40;;;20.10;89.00;;;;;;5072883;28;20040;-74
2021/07/13 03:59:21;;;;;;;8.25;7.55;;;20.10;89.00;;;;;;5071956;28;20082;-74
2021/07/13 04:01:47;;;;;;;10.75;8.75;;;20.10;89.00;;;;;;5080260;28;20542;-75
2021/07/13 04:04:12;;;;;;;10.55;8.95;;;20.10;89.10;;;;;;5093228;28;20020;-74
2021/07/13 04:06:38;;;;;;;12.07;8.65;;;20.10;89.10;;;;;;5083940;28;20480;-74
2021/07/13 04:09:06;;;;;;;11.55;9.63;;;20.10;88.90;;;;;;5084502;28;20055;-74
2021/07/13 04:11:32;;;;;;;13.77;9.77;;;20.10;88.80;;;;;;5071609;28;20081;-74
2021/07/13 04:13:58;;;;;;;11.48;9.60;;;20.10;88.80;;;;;;5092090;28;20393;-74
2021/07/13 04:16:24;;;;;;;14.68;10.65;;;20.10;89.00;;;;;;5079260;28;20032;-74
2021/07/13 04:18:49;;;;;;;10.68;8.80;;;20.10;89.10;;;;;;5076149;28;20024;-74
2021/07/13 04:21:15;;;;;;;11.48;9.23;;;20.00;89.20;;;;;;5074496;28;20556;-74
2021/07/13 04:23:41;;;;;;;12.32;11.18;;;20.00;89.20;;;;;;5078536;28;20024;-74
2021/07/13 04:26:06;;;;;;;12.45;10.95;;;20.10;89.20;;;;;;5072917;28;20031;-74
2021/07/13 04:28:32;;;;;;;12.63;10.52;;;20.00;89.20;;;;;;5072717;28;20032;-74
2021/07/13 04:30:59;;;;;;;12.48;10.00;;;20.10;89.40;;;;;;5074796;28;20031;-74
2021/07/13 04:33:25;;;;;;;10.43;9.38;;;20.00;89.30;;;;;;5074312;28;20058;-74
2021/07/13 04:35:52;;;;;;;10.52;9.10;;;20.10;89.30;;;;;;5080446;28;20033;-75
2021/07/13 04:38:18;;;;;;;12.55;10.60;;;20.10;89.20;;;;;;5081507;28;20110;-74
2021/07/13 04:40:44;;;;;;;12.70;10.88;;;20.10;89.20;;;;;;5060531;28;20111;-74
2021/07/13 04:43:10;;;;;;;14.10;11.05;;;20.10;89.20;;;;;;5084415;28;20052;-74
2021/07/13 04:45:35;;;;;;;13.20;11.02;;;20.10;89.10;;;;;;5081324;28;20075;-74
2021/07/13 04:48:01;;;;;;;10.57;9.48;;;20.10;89.00;;;;;;5076376;28;20439;-74
2021/07/13 04:50:27;;;;;;;11.27;10.10;;;20.20;89.00;;;;;;5075562;28;20033;-74
2021/07/13 04:52:52;;;;;;;10.68;9.68;;;20.20;89.00;;;;;;5078963;28;20047;-75
2021/07/13 04:55:18;;;;;;;10.10;9.10;;;20.20;89.00;;;;;;5075522;28;20093;-74
2021/07/13 04:57:44;;;;;;;11.65;10.55;;;20.20;89.00;;;;;;5085744;28;20032;-74
2021/07/13 05:00:11;;;;;;;10.73;9.70;;;20.20;88.90;;;;;;5071670;28;20017;-74
2021/07/13 05:02:37;;;;;;;12.38;9.90;;;20.20;89.00;;;;;;5082032;28;20024;-74
2021/07/13 05:05:06;;;;;;;15.55;11.30;;;20.20;89.10;;;;;;5085348;28;20509;-74
2021/07/13 05:07:31;;;;;;;12.80;11.50;;;20.20;89.20;;;;;;5072940;28;20504;-74
2021/07/13 05:09:58;;;;;;;12.75;11.55;;;20.20;89.20;;;;;;5092617;28;20028;-74
2021/07/13 05:12:23;;;;;;;16.10;12.77;;;20.10;89.20;;;;;;5077292;28;20040;-74
2021/07/13 05:14:49;;;;;;;12.68;11.45;;;20.20;89.30;;;;;;5076624;28;20554;-74
2021/07/13 05:17:15;;;;;;;14.32;11.30;;;20.10;89.30;;;;;;5080759;28;20037;-75
2021/07/13 05:19:43;;;;;;;12.13;10.90;;;20.10;89.40;;;;;;5077889;28;20394;-74
2021/07/13 05:22:10;;;;;;;15.25;9.93;;;20.10;89.20;;;;;;5090563;28;20548;-74
2021/07/13 05:24:36;;;;;;;14.18;10.75;;;20.10;89.20;;;;;;5075692;28;20039;-74
2021/07/13 05:27:02;;;;;;;13.38;11.50;;;20.10;89.20;;;;;;5086621;28;20603;-74
2021/07/13 05:29:28;;;;;;;14.18;11.43;;;20.10;89.30;;;;;;5081755;28;20485;-74
2021/07/13 05:31:54;;;;;;;12.75;11.15;;;20.10;89.60;;;;;;5078494;28;20113;-74
2021/07/13 05:34:19;;;;;;;17.27;13.90;;;20.10;89.60;;;;;;5094862;28;20031;-74
2021/07/13 05:36:45;;;;;;;14.45;12.95;;;20.10;89.60;;;;;;5080868;28;20060;-74
2021/07/13 05:39:11;;;;;;;13.00;11.75;;;20.10;89.60;;;;;;5074627;28;20040;-74
2021/07/13 05:41:37;;;;;;;13.55;11.75;;;20.10;89.60;;;;;;5077882;28;20097;-74
2021/07/13 05:44:06;;;;;;;15.30;12.63;;;20.00;89.70;;;;;;5075621;28;20033;-74
2021/07/13 05:46:32;;;;;;;13.07;11.70;;;20.00;89.80;;;;;;5077075;28;20025;-75
2021/07/13 05:48:57;;;;;;;15.63;13.35;;;20.00;90.20;;;;;;5076980;28;20412;-75
2021/07/13 05:51:23;;;;;;;14.05;12.52;;;20.00;90.10;;;;;;5085814;28;20136;-74
2021/07/13 05:53:49;;;;;;;16.00;13.10;;;20.00;90.10;;;;;;5092249;28;20035;-74
2021/07/13 05:56:14;;;;;;;19.73;14.75;;;20.10;90.20;;;;;;5078890;28;20358;-74
2021/07/13 05:58:40;;;;;;;15.80;13.98;;;20.00;90.20;;;;;;5080199;28;20063;-74
2021/07/13 06:01:06;;;;;;;15.98;14.27;;;20.00;90.20;;;;;;5084184;28;20028;-74
2021/07/13 06:03:33;;;;;;;15.27;13.75;;;20.00;90.30;;;;;;5077292;28;20025;-75
2021/07/13 06:05:59;;;;;;;20.10;15.93;;;20.00;90.40;;;;;;5080036;28;20029;-75
2021/07/13 06:08:25;;;;;;;16.83;15.02;;;20.00;90.40;;;;;;5074453;28;20024;-75
2021/07/13 06:10:51;;;;;;;16.08;14.18;;;20.10;90.50;;;;;;5075083;28;20393;-75
2021/07/13 06:13:17;;;;;;;16.70;14.95;;;20.10;90.60;;;;;;5076595;28;20024;-75
2021/07/13 06:15:43;;;;;;;19.42;17.00;;;20.10;90.60;;;;;;5077364;28;20032;-75
2021/07/13 06:18:08;;;;;;;15.02;13.52;;;20.10;90.50;;;;;;5074885;28;20025;-75
2021/07/13 06:20:35;;;;;;;17.58;14.45;;;20.10;90.50;;;;;;5078263;28;20035;-75
2021/07/13 06:23:01;;;;;;;21.88;16.45;;;20.10;90.50;;;;;;5079740;28;20123;-75
2021/07/13 06:25:27;;;;;;;17.27;15.30;;;20.10;90.50;;;;;;5071445;28;20025;-75
2021/07/13 06:27:53;;;;;;;15.68;14.07;;;20.20;90.60;;;;;;5073629;28;20029;-75
2021/07/13 06:30:19;;;;;;;16.23;14.50;;;20.20;90.70;;;;;;5074694;28;20109;-75
2021/07/13 06:32:45;;;;;;;21.50;16.77;;;20.20;90.70;;;;;;5074095;28;20059;-75
2021/07/13 06:35:11;;;;;;;20.95;15.77;;;20.20;90.70;;;;;;5086503;28;20481;-75
2021/07/13 06:37:37;;;;;;;24.33;18.45;;;20.20;90.60;;;;;;5074350;28;20393;-75
2021/07/13 06:40:07;;;;;;;21.70;16.83;;;20.20;90.60;;;;;;5073471;28;20033;-75
2021/07/13 06:42:32;;;;;;;28.00;18.80;;;20.20;90.60;;;;;;5084659;28;20024;-75
2021/07/13 06:44:58;;;;;;;21.98;19.58;;;20.20;90.50;;;;;;5086082;28;20031;-75
2021/07/13 06:47:24;;;;;;;19.45;17.35;;;20.20;90.50;;;;;;5074241;28;20033;-75
2021/07/13 06:49:50;;;;;;;21.88;16.90;;;20.20;90.60;;;;;;5087519;28;20036;-75
2021/07/13 06:52:15;;;;;;;26.92;22.67;;;20.30;90.60;;;;;;5090155;28;20060;-75
2021/07/13 06:54:41;;;;;;;29.67;23.40;;;20.30;90.60;;;;;;5081659;28;20025;-75
2021/07/13 06:57:07;;;;;;;23.73;21.00;;;20.20;90.50;;;;;;5073164;28;20457;-75
2021/07/13 06:59:34;;;;;;;22.38;19.65;;;20.20;90.60;;;;;;5074612;28;20038;-75
2021/07/13 07:02:01;;;;;;;26.75;21.10;;;20.20;90.70;;;;;;5074387;28;20044;-76
2021/07/13 07:04:27;;;;;;;26.13;21.40;;;20.20;90.80;;;;;;5084948;28;20107;-75
2021/07/13 07:06:52;;;;;;;33.53;27.75;;;20.20;90.80;;;;;;5094355;28;20047;-75
2021/07/13 07:09:18;;;;;;;33.83;28.88;;;20.20;90.70;;;;;;5083968;28;20036;-75
2021/07/13 07:11:43;;;;;;;29.85;26.63;;;20.20;90.70;;;;;;5093179;28;20448;-75
2021/07/13 07:14:09;;;;;;;28.92;25.30;;;20.20;90.70;;;;;;5090870;28;20473;-75
2021/07/13 07:16:35;;;;;;;34.15;30.45;;;20.20;90.80;;;;;;5092812;28;20036;-75
2021/07/13 07:19:00;;;;;;;34.28;30.08;;;20.20;90.70;;;;;;5087080;28;20028;-75
2021/07/13 07:21:26;;;;;;;30.58;27.33;;;20.20;90.70;;;;;;5073150;28;20052;-75
2021/07/13 07:23:51;;;;;;;30.70;25.55;;;20.20;90.80;;;;;;5086029;28;20089;-75
2021/07/13 07:26:17;;;;;;;28.52;25.45;;;20.20;90.80;;;;;;5075255;28;20492;-75
2021/07/13 07:28:43;;;;;;;28.52;24.42;;;20.10;90.80;;;;;;5073597;28;20032;-75
2021/07/13 07:31:09;;;;;;;30.95;26.48;;;20.10;90.90;;;;;;5072162;28;20063;-75
2021/07/13 07:33:35;;;;;;;30.90;26.25;;;20.20;90.90;;;;;;5073453;28;20162;-75
2021/07/13 07:36:01;;;;;;;33.03;26.85;;;20.20;90.90;;;;;;5073012;28;20540;-75
2021/07/13 07:38:27;;;;;;;30.38;27.05;;;20.20;90.90;;;;;;5092010;28;20059;-75
2021/07/13 07:40:53;;;;;;;42.13;34.63;;;20.10;91.20;;;;;;5093005;28;20054;-75
2021/07/13 07:43:19;;;;;;;40.67;35.20;;;20.10;91.00;;;;;;5087572;28;20020;-75
2021/07/13 07:45:44;;;;;;;44.80;37.72;;;20.10;91.10;;;;;;5072005;28;20020;-75
2021/07/13 07:48:10;;;;;;;49.63;38.40;;;20.20;91.20;;;;;;5073013;28;20036;-75
2021/07/13 07:50:36;;;;;;;38.05;31.90;;;20.20;91.20;;;;;;5071983;28;20032;-75
2021/07/13 07:53:02;;;;;;;44.53;36.42;;;20.20;91.10;;;;;;5081602;28;20078;-75
2021/07/13 07:55:28;;;;;;;46.20;33.78;;;20.20;91.10;;;;;;5093518;28;20032;-75
2021/07/13 07:57:55;;;;;;;40.22;34.03;;;20.20;91.10;;;;;;5089257;28;20472;-76
2021/07/13 08:00:21;;;;;;;40.25;35.50;;;20.20;91.10;;;;;;5083575;28;20025;-75
2021/07/13 08:02:47;;;;;;;52.33;43.05;;;20.20;91.20;;;;;;5074550;28;20016;-76
2021/07/13 08:05:16;;;;;;;48.28;39.30;;;20.30;91.20;;;;;;5089304;28;20112;-75
2021/07/13 08:07:43;;;;;;;47.13;39.55;;;20.30;91.20;;;;;;5074357;28;20451;-75
2021/07/13 08:10:11;;;;;;;48.92;40.20;;;20.30;91.20;;;;;;5081763;28;20028;-75
2021/07/13 08:12:36;;;;;;;49.22;40.97;;;20.30;91.20;;;;;;5086013;28;20431;-75
2021/07/13 08:15:06;;;;;;;51.55;40.28;;;20.30;91.20;;;;;;5051840;28;20033;-75
2021/07/13 08:17:32;;;;;;;48.83;37.70;;;20.30;91.20;;;;;;5054717;28;20450;-75
2021/07/13 08:19:57;;;;;;;47.22;37.63;;;20.40;91.20;;;;;;5092034;28;20050;-74
2021/07/13 08:22:23;;;;;;;41.75;36.90;;;20.40;91.10;;;;;;5091345;28;20051;-76
2021/07/13 08:24:49;;;;;;;41.28;35.78;;;20.40;91.00;;;;;;5085759;28;20021;-75
2021/07/13 08:27:15;;;;;;;48.88;37.58;;;20.50;90.90;;;;;;5071792;28;20029;-74
2021/07/13 08:29:42;;;;;;;53.30;42.00;;;20.50;90.90;;;;;;5075588;28;20382;-75
2021/07/13 08:32:08;;;;;;;44.08;37.20;;;20.50;90.90;;;;;;5091840;28;20028;-75
2021/07/13 08:34:34;;;;;;;45.63;37.47;;;20.50;91.00;;;;;;5076916;28;20541;-75
2021/07/13 08:37:02;;;;;;;45.20;39.05;;;20.50;91.00;;;;;;5072742;28;20051;-75
2021/07/13 08:39:28;;;;;;;40.38;34.80;;;20.50;91.00;;;;;;5075039;28;20424;-75
2021/07/13 08:41:54;;;;;;;39.80;31.88;;;20.50;91.00;;;;;;5092284;28;20027;-75
2021/07/13 08:44:19;;;;;;;40.65;35.03;;;20.50;90.90;;;;;;5073924;28;20474;-75
2021/07/13 08:46:45;;;;;;;43.30;34.10;;;20.60;90.90;;;;;;5072869;28;20044;-75
2021/07/13 08:49:13;;;;;;;47.35;39.83;;;20.60;90.80;;;;;;5072838;28;20583;-75
2021/07/13 08:51:40;;;;;;;37.42;33.28;;;20.60;90.50;;;;;;5071532;28;20056;-76
2021/07/13 08:54:07;;;;;;;42.20;36.13;;;20.50;90.50;;;;;;5072593;28;20032;-75
2021/07/13 08:56:36;;;;;;;46.83;36.97;;;20.50;90.60;;;;;;5077015;28;20571;-75
2021/07/13 08:59:02;;;;;;;;;;;20.50;90.70;;;;;;5075703;28;20033;-77
2021/07/13 09:01:28;;;;;;;46.95;37.60;;;20.50;90.60;;;;;;5086014;28;19904;-83
2021/07/13 09:04:01;;;;;;;57.22;42.42;;;20.50;90.80;;;;;;5077337;28;20070;-83
2021/07/13 09:06:49;;;;;;;49.70;40.13;;;20.50;90.90;;;;;;5083119;28;20055;-82
2021/07/13 09:09:32;;;;;;;51.15;40.75;;;20.60;91.00;;;;;;5095965;28;20123;-82
2021/07/13 09:12:15;;;;;;;43.92;36.63;;;20.60;91.00;;;;;;5097143;28;20061;-82
2021/07/13 09:14:54;;;;;;;51.15;39.90;;;20.70;91.10;;;;;;5097073;28;20074;-82
2021/07/13 09:17:26;;;;;;;45.13;37.08;;;20.80;91.10;;;;;;5096941;28;20422;-82
2021/07/13 09:20:27;;;;;;;47.70;37.95;;;20.70;91.00;;;;;;5097061;28;20544;-82
2021/07/13 09:23:06;;;;;;;46.25;38.08;;;20.80;91.00;;;;;;5096640;28;20055;-82
2021/07/13 09:25:42;;;;;;;46.58;38.78;;;20.80;90.90;;;;;;5095724;28;20162;-82
2021/07/13 09:28:18;;;;;;;44.88;34.50;;;20.80;90.90;;;;;;5096874;28;20040;-82
2021/07/13 09:30:50;;;;;;;52.85;40.55;;;20.80;91.00;;;;;;5096924;28;20032;-82
2021/07/13 09:33:26;;;;;;;47.65;38.78;;;20.80;91.10;;;;;;5096926;28;20028;-81
2021/07/13 09:36:01;;;;;;;43.05;36.13;;;20.80;91.10;;;;;;5097107;28;20095;-82
2021/07/13 09:38:29;;;;;;;49.40;38.50;;;20.80;91.10;;;;;;5096516;28;20534;-82
2021/07/13 09:41:18;;;;;;;47.97;37.17;;;20.80;91.10;;;;;;5096427;28;20058;-82
2021/07/13 09:43:47;;;;;;;50.80;41.28;;;20.80;91.20;;;;;;5096441;28;20465;-82
2021/07/13 09:46:32;;;;;;;46.78;37.50;;;20.90;91.20;;;;;;5094756;28;20119;-82
2021/07/13 09:49:13;;;;;;;49.08;40.67;;;20.90;91.00;;;;;;5094710;28;20025;-81
2021/07/13 09:52:03;;;;;;;53.13;41.88;;;20.80;91.10;;;;;;5081958;28;20411;-82
2021/07/13 09:54:34;;;;;;;46.00;36.45;;;20.80;91.00;;;;;;5076036;28;20500;-82
2021/07/13 09:57:28;;;;;;;47.53;35.92;;;20.70;91.10;;;;;;5074800;28;20052;-81
2021/07/13 09:59:56;;;;;;;46.35;36.45;;;20.70;91.20;;;;;;5075238;28;20388;-81
2021/07/13 10:02:26;;;;;;;52.00;39.70;;;20.70;91.20;;;;;;5074692;28;20029;-82
2021/07/13 10:04:55;;;;;;;43.13;36.22;;;20.70;91.20;;;;;;5075876;28;20099;-82
2021/07/13 10:07:21;;;;;;;51.83;39.60;;;20.70;91.20;;;;;;5073980;28;20036;-81
2021/07/13 10:09:50;;;;;;;47.33;38.20;;;20.60;91.20;;;;;;5075646;28;20060;-82
2021/07/13 10:12:18;;;;;;;41.88;34.25;;;20.60;91.30;;;;;;5075964;28;20575;-82
2021/07/13 10:14:46;;;;;;;44.65;33.88;;;20.60;91.30;;;;;;5075845;28;20028;-82
2021/07/13 10:17:13;;;;;;;45.00;35.55;;;20.50;91.20;;;;;;5075468;28;20120;-82
2021/07/13 10:19:49;;;;;;;44.08;33.90;;;20.50;91.30;;;;;;5075431;28;20542;-82
2021/07/13 10:22:16;;;;;;;42.15;32.80;;;20.50;91.30;;;;;;5075579;28;20068;-82
2021/07/13 10:24:46;;;;;;;44.97;33.95;;;20.60;91.40;;;;;;5074386;28;20021;-82
2021/07/13 10:27:33;;;;;;;40.90;33.83;;;20.60;91.40;;;;;;5075875;28;20020;-82
2021/07/13 10:30:01;;;;;;;41.75;33.45;;;20.70;91.40;;;;;;5075608;28;20029;-82
2021/07/13 10:32:27;;;;;;;42.55;35.10;;;20.80;91.40;;;;;;5075483;28;20029;-82
2021/07/13 10:34:53;;;;;;;44.60;35.90;;;20.80;91.20;;;;;;5075284;28;20503;-81
2021/07/13 10:37:37;;;;;;;47.35;37.88;;;20.80;91.30;;;;;;5073925;28;20101;-82
2021/07/13 10:40:33;;;;;;;47.42;34.70;;;20.80;91.40;;;;;;5073947;28;20381;-82
2021/07/13 10:43:15;;;;;;;49.08;37.83;;;20.80;91.40;;;;;;5073783;28;20024;-82
2021/07/13 10:45:44;;;;;;;60.88;45.75;;;20.80;91.60;;;;;;5081618;28;20489;-82
2021/07/13 10:48:14;;;;;;;48.72;38.80;;;20.90;91.50;;;;;;5095461;28;20024;-82
2021/07/13 10:50:39;;;;;;;49.70;39.22;;;20.80;91.60;;;;;;5095446;28;20028;-82
2021/07/13 10:53:15;;;;;;;46.33;37.75;;;20.70;91.70;;;;;;5095173;28;20028;-81
2021/07/13 10:55:49;;;;;;;49.75;38.97;;;20.70;91.80;;;;;;5079845;28;20025;-82
2021/07/13 10:58:14;;;;;;;44.97;34.63;;;20.70;91.90;;;;;;5074689;28;20073;-82
2021/07/13 11:00:58;;;;;;;48.60;37.75;;;20.70;91.90;;;;;;5075173;28;20103;-82
2021/07/13 11:03:32;;;;;;;44.28;35.22;;;20.80;91.80;;;;;;5074674;28;20043;-82
2021/07/13 11:06:17;;;;;;;39.78;32.58;;;20.80;91.80;;;;;;5074665;28;20418;-82
2021/07/13 11:08:52;;;;;;;44.95;35.13;;;20.80;91.90;;;;;;5074609;28;20039;-82
2021/07/13 11:11:27;;;;;;;47.40;34.00;;;20.70;91.90;;;;;;5074484;28;20032;-82
2021/07/13 11:13:54;;;;;;;38.20;31.50;;;20.80;91.90;;;;;;5054421;28;20025;-82
2021/07/13 11:16:31;;;;;;;39.97;31.05;;;20.70;91.80;;;;;;5054268;28;20052;-82
2021/07/13 11:18:58;;;;;;;43.63;33.15;;;20.80;91.80;;;;;;5053947;28;20021;-82
2021/07/13 11:21:27;;;;;;;35.75;29.00;;;20.80;91.80;;;;;;5063543;28;20086;-82
2021/07/13 11:24:04;;;;;;;37.63;30.65;;;20.80;91.80;;;;;;5072564;28;20025;-82
2021/07/13 11:26:31;;;;;;;41.63;32.72;;;20.80;91.90;;;;;;5074134;28;20036;-82
2021/07/13 11:28:59;;;;;;;36.55;29.35;;;20.80;91.80;;;;;;5074084;28;20036;-83
2021/07/13 11:31:33;;;;;;;40.83;33.08;;;20.80;91.80;;;;;;5072770;28;20032;-82
2021/07/13 11:34:04;;;;;;;43.30;33.28;;;20.80;91.90;;;;;;5073932;28;20469;-82
2021/07/13 11:36:41;;;;;;;34.72;29.92;;;20.80;92.00;;;;;;5072645;28;20039;-82
2021/07/13 11:39:12;;;;;;;35.27;28.27;;;20.90;92.10;;;;;;5074019;28;20465;-82
2021/07/13 11:41:40;;;;;;;28.65;24.85;;;20.90;91.90;;;;;;5072827;28;20385;-83
2021/07/13 11:44:08;;;;;;;31.33;27.67;;;20.90;91.80;;;;;;5074143;28;20016;-82
2021/07/13 11:46:36;;;;;;;29.88;25.30;;;20.80;91.70;;;;;;5073960;28;20027;-83
2021/07/13 11:49:10;;;;;;;28.92;23.50;;;20.80;91.70;;;;;;5073973;28;20033;-82
2021/07/13 11:51:55;;;;;;;23.30;20.40;;;20.80;91.80;;;;;;5073620;28;20020;-82
2021/07/13 11:54:32;;;;;;;24.95;22.15;;;20.80;91.80;;;;;;5073651;28;20032;-82
2021/07/13 11:57:00;;;;;;;25.42;22.70;;;20.70;91.70;;;;;;5072326;28;20029;-82
2021/07/13 11:59:28;;;;;;;27.92;23.63;;;20.70;92.20;;;;;;5073728;28;20105;-83
2021/07/13 12:02:00;;;;;;;30.40;24.05;;;20.70;91.90;;;;;;5072553;28;20033;-83
2021/07/13 12:04:27;;;;;;;31.70;24.20;;;20.70;92.00;;;;;;5072230;28;20048;-83
2021/07/13 12:06:56;;;;;;;30.70;25.20;;;20.70;92.00;;;;;;5072448;28;20036;-83
2021/07/13 12:09:28;;;;;;;31.45;25.58;;;20.80;92.00;;;;;;5073710;28;20522;-83
2021/07/13 12:11:55;;;;;;;31.02;23.88;;;20.80;92.10;;;;;;5073608;28;20037;-83
2021/07/13 12:14:23;;;;;;;25.90;22.80;;;20.80;92.10;;;;;;5073525;28;20100;-82
2021/07/13 12:16:49;;;;;;;27.10;22.63;;;20.80;91.90;;;;;;5073244;28;20029;-83
2021/07/13 12:19:20;;;;;;;26.40;22.15;;;20.80;91.90;;;;;;5072120;28;20051;-83
2021/07/13 12:22:03;;;;;;;30.92;23.10;;;20.80;91.90;;;;;;5073541;28;20017;-83
2021/07/13 12:24:38;;;;;;;20.88;17.92;;;20.90;91.90;;;;;;5073516;28;20527;-84
2021/07/13 12:27:12;;;;;;;18.70;16.23;;;20.90;91.80;;;;;;5086630;28;20463;-83
2021/07/13 12:29:43;;;;;;;23.73;17.92;;;20.90;91.70;;;;;;5073235;28;20507;-84
2021/07/13 12:32:30;;;;;;;22.35;19.08;;;20.90;91.60;;;;;;5071801;28;20078;-83
2021/07/13 12:34:57;;;;;;;23.65;19.10;;;20.90;91.60;;;;;;5073320;28;20027;-83
2021/07/13 12:37:31;;;;;;;28.20;21.23;;;20.90;91.50;;;;;;5072057;28;20039;-83
2021/07/13 12:39:59;;;;;;;28.30;23.05;;;20.90;91.60;;;;;;5073374;28;20380;-83
2021/07/13 12:42:31;;;;;;;26.50;20.77;;;20.90;91.60;;;;;;5073047;28;20466;-84